createdAt,value
2023-04-16T00:00:11.521Z,49.21
2023-04-16T00:02:41.573Z,49.37
2023-04-16T00:05:10.893Z,49.24
2023-04-16T00:07:39.836Z,49.31
2023-04-16T00:10:11.074Z,49.74
2023-04-16T00:12:40.201Z,49.94
2023-04-16T00:15:09.898Z,50.18
2023-04-16T00:17:38.853Z,50.27
2023-04-16T00:20:10.184Z,50.29
2023-04-16T00:22:39.474Z,50.06
2023-04-16T00:25:08.765Z,50.28
2023-04-16T00:27:39.081Z,50.66
2023-04-16T00:30:09.336Z,50.44
2023-04-16T00:32:38.588Z,50.79
2023-04-16T00:35:08.865Z,50.85
2023-04-16T00:37:37.892Z,51.06
2023-04-16T00:40:08.675Z,51.80
2023-04-16T00:42:39.010Z,51.38
2023-04-16T00:45:09.267Z,51.34
2023-04-16T00:47:38.407Z,51.22
2023-04-16T00:50:08.827Z,51.82
2023-04-16T00:52:37.902Z,52.30
2023-04-16T00:55:13.776Z,52.23
2023-04-16T00:57:44.341Z,52.53
2023-04-16T01:00:14.498Z,52.85
2023-04-16T01:02:43.690Z,52.85
2023-04-16T01:05:12.864Z,52.95
2023-04-16T01:07:41.854Z,52.68
2023-04-16T01:10:11.028Z,52.66
2023-04-16T01:12:39.954Z,52.78
2023-04-16T01:15:11.522Z,52.97
2023-04-16T01:17:40.706Z,53.00
2023-04-16T01:20:10.413Z,53.37
2023-04-16T01:22:41.084Z,53.75
2023-04-16T01:25:10.322Z,53.71
2023-04-16T01:27:39.270Z,53.82
2023-04-16T01:30:09.477Z,53.50
2023-04-16T01:32:50.101Z,53.85
2023-04-16T01:35:19.351Z,53.80
2023-04-16T01:37:51.483Z,53.49
2023-04-16T01:40:20.918Z,53.99
2023-04-16T01:42:49.948Z,54.61
2023-04-16T01:45:19.489Z,54.23
2023-04-16T01:47:48.668Z,54.86
2023-04-16T01:50:18.249Z,54.46
2023-04-16T01:52:47.527Z,55.05
2023-04-16T01:55:18.045Z,54.96
2023-04-16T01:57:47.079Z,55.10
2023-04-16T02:00:17.181Z,54.86
2023-04-16T02:02:50.370Z,54.93
2023-04-16T02:05:27.718Z,55.03
2023-04-16T02:07:56.674Z,54.96
2023-04-16T02:10:27.059Z,54.56
2023-04-16T02:12:56.779Z,54.39
2023-04-16T02:15:26.283Z,54.83
2023-04-16T02:17:57.299Z,55.19
2023-04-16T02:20:27.824Z,55.47
2023-04-16T02:23:01.915Z,55.39
2023-04-16T02:25:33.073Z,55.48
2023-04-16T02:28:02.176Z,55.99
2023-04-16T02:30:40.470Z,56.00
2023-04-16T02:33:11.358Z,56.45
2023-04-16T02:35:43.076Z,55.87
2023-04-16T02:38:12.042Z,55.79
2023-04-16T02:40:42.725Z,55.99
2023-04-16T02:43:11.699Z,56.06
2023-04-16T02:45:40.688Z,56.20
2023-04-16T02:48:10.111Z,55.91
2023-04-16T02:50:39.218Z,55.49
2023-04-16T02:53:08.672Z,55.46
2023-04-16T02:55:37.740Z,54.99
2023-04-16T02:58:08.290Z,55.41
2023-04-16T03:00:37.369Z,55.36
2023-04-16T03:03:06.900Z,55.55
2023-04-16T03:05:36.658Z,55.38
2023-04-16T03:08:07.469Z,55.55
2023-04-16T03:10:37.269Z,55.10
2023-04-16T03:13:07.616Z,54.61
2023-04-16T03:15:36.683Z,55.12
2023-04-16T03:18:05.753Z,55.14
2023-04-16T03:20:34.919Z,55.37
2023-04-16T03:23:03.975Z,54.98
2023-04-16T03:25:32.902Z,55.22
2023-04-16T03:28:03.876Z,54.69
2023-04-16T03:30:34.599Z,54.72
2023-04-16T03:33:03.645Z,55.26
2023-04-16T03:35:32.591Z,56.28
2023-04-16T03:38:01.967Z,55.89
2023-04-16T03:40:31.343Z,55.70
2023-04-16T03:43:01.664Z,55.33
2023-04-16T03:45:31.401Z,55.28
2023-04-16T03:48:01.871Z,55.27
2023-04-16T03:50:30.918Z,54.81
2023-04-16T03:53:00.123Z,54.82
2023-04-16T03:55:30.017Z,54.30
2023-04-16T03:58:03.154Z,54.46
2023-04-16T04:00:34.169Z,55.23
2023-04-16T04:03:11.953Z,54.43
2023-04-16T04:05:43.087Z,54.01
2023-04-16T04:08:13.832Z,54.34
2023-04-16T04:10:43.988Z,54.60
2023-04-16T04:13:14.244Z,53.93
2023-04-16T04:15:43.226Z,52.85
2023-04-16T04:18:13.865Z,52.34
2023-04-16T04:20:42.883Z,52.53
2023-04-16T04:23:11.802Z,51.35
2023-04-16T04:25:40.735Z,50.59
2023-04-16T04:28:10.040Z,50.04
2023-04-16T04:30:39.009Z,49.67
2023-04-16T04:33:08.848Z,49.65
2023-04-16T04:35:41.207Z,49.59
2023-04-16T04:38:11.582Z,49.24
2023-04-16T04:40:41.578Z,48.97
2023-04-16T04:43:12.162Z,49.27
2023-04-16T04:45:42.047Z,49.04
2023-04-16T04:48:11.364Z,49.13
2023-04-16T04:50:42.108Z,48.59
2023-04-16T04:53:11.174Z,47.92
2023-04-16T04:55:41.278Z,46.83
2023-04-16T04:58:11.598Z,45.50
2023-04-16T05:00:44.044Z,45.12
2023-04-16T05:03:13.888Z,43.97
2023-04-16T05:05:44.386Z,42.71
2023-04-16T05:08:13.327Z,42.29
2023-04-16T05:10:42.233Z,41.58
2023-04-16T05:13:11.279Z,40.88
2023-04-16T05:15:41.212Z,39.73
2023-04-16T05:18:10.170Z,39.17
2023-04-16T05:20:39.106Z,38.40
2023-04-16T05:23:09.438Z,37.86
2023-04-16T05:25:38.414Z,37.76
2023-04-16T05:28:07.439Z,37.20
2023-04-16T05:30:36.494Z,37.35
2023-04-16T05:33:05.933Z,37.21
2023-04-16T05:35:35.202Z,36.58
2023-04-16T05:38:05.388Z,36.59
2023-04-16T05:40:35.839Z,36.64
2023-04-16T05:43:04.897Z,36.05
2023-04-16T05:45:39.654Z,35.75
2023-04-16T05:48:09.636Z,35.25
2023-04-16T05:50:38.931Z,35.08
2023-04-16T05:53:09.539Z,35.02
2023-04-16T05:55:39.983Z,34.33
2023-04-16T05:58:09.460Z,33.87
2023-04-16T06:00:38.549Z,34.01
2023-04-16T06:03:07.813Z,33.40
2023-04-16T06:05:37.025Z,33.10
2023-04-16T06:08:06.156Z,33.37
2023-04-16T06:10:35.257Z,33.53
2023-04-16T06:13:06.099Z,33.02
2023-04-16T06:15:37.023Z,33.55
2023-04-16T06:18:06.660Z,32.34
2023-04-16T06:20:36.451Z,32.64
2023-04-16T06:23:23.097Z,32.96
2023-04-16T06:25:52.608Z,31.99
2023-04-16T06:28:23.415Z,31.84
2023-04-16T06:30:52.553Z,31.77
2023-04-16T06:33:21.637Z,31.71
2023-04-16T06:35:50.818Z,32.54
2023-04-16T06:38:20.114Z,33.49
2023-04-16T06:40:50.277Z,33.42
2023-04-16T06:43:19.378Z,32.82
2023-04-16T06:45:52.854Z,31.98
2023-04-16T06:48:24.161Z,30.18
2023-04-16T06:50:54.005Z,30.43
2023-04-16T06:53:23.207Z,29.82
2023-04-16T06:55:52.169Z,29.25
2023-04-16T06:58:21.132Z,29.80
2023-04-16T07:00:51.658Z,28.69
2023-04-16T07:03:21.082Z,28.12
2023-04-16T07:05:50.389Z,28.57
2023-04-16T07:08:19.445Z,28.41
2023-04-16T07:10:48.510Z,28.37
2023-04-16T07:13:18.665Z,28.69
2023-04-16T07:15:48.511Z,28.70
2023-04-16T07:18:20.702Z,28.10
2023-04-16T07:20:50.078Z,27.50
2023-04-16T07:23:19.150Z,28.10
2023-04-16T07:25:48.125Z,27.79
2023-04-16T07:28:17.734Z,27.04
2023-04-16T07:30:46.783Z,26.67
2023-04-16T07:33:15.804Z,27.48
2023-04-16T07:35:46.579Z,27.70
2023-04-16T07:38:16.483Z,27.58
2023-04-16T07:40:45.669Z,26.94
2023-04-16T07:43:16.467Z,26.80
2023-04-16T07:45:45.677Z,27.27
2023-04-16T07:48:14.874Z,27.47
2023-04-16T07:50:45.440Z,28.36
2023-04-16T07:53:14.544Z,26.88
2023-04-16T07:55:43.582Z,26.13
2023-04-16T07:58:12.679Z,26.42
2023-04-16T08:00:41.790Z,25.73
2023-04-16T08:03:11.302Z,25.56
2023-04-16T08:05:40.828Z,25.68
2023-04-16T08:08:11.263Z,26.25
2023-04-16T08:10:40.825Z,26.13
2023-04-16T08:13:09.940Z,26.06
2023-04-16T08:15:39.044Z,25.36
2023-04-16T08:18:12.948Z,25.00
2023-04-16T08:20:41.953Z,25.19
2023-04-16T08:23:12.456Z,25.61
2023-04-16T08:25:41.810Z,24.86
2023-04-16T08:28:11.205Z,25.03
2023-04-16T08:30:40.509Z,25.37
2023-04-16T08:33:09.759Z,25.74
2023-04-16T08:35:38.827Z,25.58
2023-04-16T08:38:08.805Z,25.47
2023-04-16T08:40:40.386Z,25.69
2023-04-16T08:43:13.467Z,25.44
2023-04-16T08:45:43.826Z,25.75
2023-04-16T08:48:13.706Z,26.61
2023-04-16T08:50:43.172Z,25.81
2023-04-16T08:53:16.369Z,25.37
2023-04-16T08:55:49.678Z,25.39
2023-04-16T08:58:22.421Z,26.10
2023-04-16T09:00:52.219Z,25.77
2023-04-16T09:03:21.879Z,25.96
2023-04-16T09:05:51.707Z,25.59
2023-04-16T09:08:22.028Z,25.65
2023-04-16T09:10:53.284Z,25.56
2023-04-16T09:13:23.640Z,25.13
2023-04-16T09:15:54.954Z,25.09
2023-04-16T09:18:23.938Z,25.52
2023-04-16T09:20:53.593Z,25.19
2023-04-16T09:23:22.610Z,25.19
2023-04-16T09:25:53.095Z,25.12
2023-04-16T09:28:43.110Z,25.14
2023-04-16T09:31:14.338Z,24.74
2023-04-16T09:33:44.162Z,24.98
2023-04-16T09:36:13.233Z,25.07
2023-04-16T09:38:49.036Z,25.63
2023-04-16T09:41:20.896Z,24.90
2023-04-16T09:43:57.732Z,25.35
2023-04-16T09:46:31.859Z,25.68
2023-04-16T09:49:06.913Z,25.24
2023-04-16T09:51:38.375Z,25.77
2023-04-16T09:54:07.871Z,25.24
2023-04-16T09:56:43.417Z,25.69
2023-04-16T09:59:18.732Z,25.86
2023-04-16T10:01:49.844Z,25.13
2023-04-16T10:04:19.292Z,25.19
2023-04-16T10:07:05.151Z,25.06
2023-04-16T10:09:38.384Z,25.70
2023-04-16T10:12:09.276Z,25.65
2023-04-16T10:14:38.318Z,25.75
2023-04-16T10:17:07.858Z,26.04
2023-04-16T10:19:37.766Z,25.06
2023-04-16T10:22:07.313Z,25.27
2023-04-16T10:24:36.744Z,25.48
2023-04-16T10:27:08.052Z,24.99
2023-04-16T10:29:38.864Z,24.05
2023-04-16T10:32:08.743Z,24.48
2023-04-16T10:34:38.050Z,24.79
2023-04-16T10:37:07.051Z,24.77
2023-04-16T10:39:38.611Z,25.14
2023-04-16T10:42:12.424Z,24.42
2023-04-16T10:44:45.470Z,24.25
2023-04-16T10:47:15.453Z,24.26
2023-04-16T10:49:44.862Z,24.61
2023-04-16T10:52:17.237Z,24.20
2023-04-16T10:54:48.536Z,24.28
2023-04-16T10:57:19.444Z,23.95
2023-04-16T10:59:50.826Z,24.17
2023-04-16T11:02:20.882Z,23.90
2023-04-16T11:04:50.838Z,24.32
2023-04-16T11:07:21.683Z,24.66
2023-04-16T11:09:56.334Z,24.03
2023-04-16T11:12:29.925Z,24.13
2023-04-16T11:15:02.521Z,24.44
2023-04-16T11:17:40.327Z,24.44
2023-04-16T11:20:19.474Z,24.05
2023-04-16T11:22:51.097Z,24.50
2023-04-16T11:25:26.959Z,24.57
2023-04-16T11:27:57.126Z,24.06
2023-04-16T11:30:34.066Z,24.29
2023-04-16T11:33:11.733Z,24.69
2023-04-16T11:35:46.818Z,25.07
2023-04-16T11:38:21.955Z,25.22
2023-04-16T11:41:00.020Z,25.54
2023-04-16T11:43:35.246Z,25.08
2023-04-16T11:46:26.335Z,25.68
2023-04-16T11:49:02.108Z,25.68
2023-04-16T11:51:35.820Z,25.29
2023-04-16T11:54:12.108Z,24.68
2023-04-16T11:56:56.449Z,25.00
2023-04-16T11:59:28.507Z,24.82
2023-04-16T12:02:02.062Z,25.05
2023-04-16T12:04:38.374Z,24.94
2023-04-16T12:07:14.787Z,24.80
2023-04-16T12:09:54.697Z,24.54
2023-04-16T12:12:32.024Z,24.42
2023-04-16T12:15:04.883Z,24.55
2023-04-16T12:17:42.289Z,24.36
2023-04-16T12:20:17.667Z,24.74
2023-04-16T12:22:53.635Z,24.30
2023-04-16T12:25:26.949Z,24.68
2023-04-16T12:27:58.799Z,25.18
2023-04-16T12:30:38.959Z,24.94
2023-04-16T12:33:21.980Z,24.77
2023-04-16T12:35:51.794Z,24.67
2023-04-16T12:38:23.543Z,24.59
2023-04-16T12:40:56.879Z,24.36
2023-04-16T12:43:26.628Z,24.24
2023-04-16T12:45:55.871Z,24.31
2023-04-16T12:48:29.016Z,25.03
2023-04-16T12:50:58.325Z,25.05
2023-04-16T12:53:29.145Z,25.03
2023-04-16T12:55:58.622Z,25.33
2023-04-16T12:58:27.919Z,24.95
2023-04-16T13:00:57.011Z,25.13
2023-04-16T13:03:27.742Z,25.49
2023-04-16T13:05:57.395Z,24.98
2023-04-16T13:08:26.740Z,25.03
2023-04-16T13:10:56.195Z,25.56
2023-04-16T13:13:25.443Z,25.68
2023-04-16T13:15:54.548Z,25.33
2023-04-16T13:18:23.567Z,25.30
2023-04-16T13:21:05.077Z,25.08
2023-04-16T13:23:34.283Z,25.40
2023-04-16T13:26:03.528Z,24.82
2023-04-16T13:28:32.529Z,25.37
2023-04-16T13:31:05.587Z,25.07
2023-04-16T13:33:35.083Z,25.32
2023-04-16T13:36:05.754Z,25.40
2023-04-16T13:38:34.845Z,24.95
2023-04-16T13:41:07.983Z,25.23
2023-04-16T13:43:36.977Z,25.79
2023-04-16T13:46:06.177Z,25.76
2023-04-16T13:48:35.222Z,26.35
2023-04-16T13:51:05.739Z,26.03
2023-04-16T13:53:35.044Z,26.38
2023-04-16T13:56:04.876Z,26.57
2023-04-16T13:58:34.189Z,26.53
2023-04-16T14:01:09.112Z,26.51
2023-04-16T14:03:39.110Z,27.10
2023-04-16T14:06:09.623Z,26.33
2023-04-16T14:08:39.419Z,26.47
2023-04-16T14:11:10.330Z,26.66
2023-04-16T14:13:39.936Z,26.88
2023-04-16T14:16:10.938Z,26.95
2023-04-16T14:18:42.544Z,26.96
2023-04-16T14:21:14.420Z,27.23
2023-04-16T14:23:43.711Z,27.30
2023-04-16T14:26:12.928Z,27.26
2023-04-16T14:28:42.521Z,26.99
2023-04-16T14:31:11.678Z,27.21
2023-04-16T14:33:41.020Z,27.22
2023-04-16T14:36:10.236Z,27.11
2023-04-16T14:38:40.997Z,27.21
2023-04-16T14:41:10.818Z,27.53
2023-04-16T14:43:41.523Z,27.25
2023-04-16T14:46:10.935Z,27.77
2023-04-16T14:48:40.146Z,27.84
2023-04-16T14:51:09.830Z,27.73
2023-04-16T14:53:40.242Z,27.88
2023-04-16T14:56:09.324Z,27.46
2023-04-16T14:58:39.462Z,27.67
2023-04-16T15:01:09.109Z,27.67
2023-04-16T15:03:38.511Z,27.94
2023-04-16T15:06:11.490Z,28.30
2023-04-16T15:08:42.034Z,28.14
2023-04-16T15:11:11.232Z,28.13
2023-04-16T15:13:40.543Z,27.83
2023-04-16T15:16:09.781Z,27.91
2023-04-16T15:18:41.670Z,28.08
2023-04-16T15:21:12.594Z,28.23
2023-04-16T15:23:43.468Z,28.23
2023-04-16T15:26:12.986Z,28.05
2023-04-16T15:28:41.958Z,28.08
2023-04-16T15:31:12.374Z,27.94
2023-04-16T15:33:41.387Z,27.77
2023-04-16T15:36:11.510Z,28.19
2023-04-16T15:38:40.821Z,28.07
2023-04-16T15:41:12.248Z,28.31
2023-04-16T15:43:41.218Z,28.54
2023-04-16T15:46:10.675Z,28.67
2023-04-16T15:48:39.941Z,29.01
2023-04-16T15:51:09.194Z,29.44
2023-04-16T15:53:38.269Z,29.59
2023-04-16T15:56:07.537Z,29.99
2023-04-16T15:58:37.946Z,29.95
2023-04-16T16:01:07.187Z,30.20
2023-04-16T16:03:36.559Z,30.72
2023-04-16T16:06:07.712Z,30.92
2023-04-16T16:08:38.424Z,31.09
2023-04-16T16:11:07.848Z,31.38
2023-04-16T16:13:38.354Z,31.72
2023-04-16T16:16:07.560Z,31.65
2023-04-16T16:18:37.058Z,31.96
2023-04-16T16:21:06.304Z,32.04
2023-04-16T16:23:41.700Z,33.22
2023-04-16T16:26:10.709Z,33.64
2023-04-16T16:28:43.895Z,33.63
2023-04-16T16:31:13.430Z,33.69
2023-04-16T16:33:42.576Z,34.47
2023-04-16T16:36:12.006Z,34.23
2023-04-16T16:38:41.336Z,34.56
2023-04-16T16:41:23.565Z,34.61
2023-04-16T16:43:56.378Z,34.55
2023-04-16T16:46:25.378Z,34.49
2023-04-16T16:48:54.460Z,34.25
2023-04-16T16:51:23.424Z,34.49
2023-04-16T16:53:52.436Z,34.80
2023-04-16T16:56:39.750Z,34.64
2023-04-16T16:59:29.719Z,34.83
2023-04-16T17:01:58.929Z,34.95
2023-04-16T17:04:28.037Z,34.82
2023-04-16T17:06:57.464Z,35.11
2023-04-16T17:09:26.839Z,35.12
2023-04-16T17:11:57.032Z,35.33
2023-04-16T17:14:28.494Z,35.63
2023-04-16T17:16:57.625Z,34.94
2023-04-16T17:19:27.538Z,35.42
2023-04-16T17:21:57.039Z,35.78
2023-04-16T17:24:26.145Z,35.82
2023-04-16T17:26:56.020Z,35.75
2023-04-16T17:29:26.371Z,36.16
2023-04-16T17:31:58.546Z,36.40
2023-04-16T17:34:27.887Z,36.17
2023-04-16T17:36:56.885Z,36.70
2023-04-16T17:39:26.155Z,36.42
2023-04-16T17:41:58.631Z,36.67
2023-04-16T17:44:28.137Z,36.36
2023-04-16T17:46:58.600Z,36.28
2023-04-16T17:49:29.890Z,36.22
2023-04-16T17:51:59.169Z,36.65
2023-04-16T17:54:28.237Z,36.07
2023-04-16T17:56:57.641Z,36.12
2023-04-16T17:59:27.601Z,36.60
2023-04-16T18:01:59.242Z,36.91
2023-04-16T18:04:28.574Z,36.97
2023-04-16T18:06:57.730Z,37.51
2023-04-16T18:09:27.460Z,37.39
2023-04-16T18:11:57.243Z,37.00
2023-04-16T18:14:26.468Z,37.39
2023-04-16T18:16:55.713Z,38.11
2023-04-16T18:19:26.088Z,37.99
2023-04-16T18:22:13.927Z,37.31
2023-04-16T18:24:43.007Z,37.91
2023-04-16T18:27:12.526Z,37.70
2023-04-16T18:29:43.843Z,38.00
2023-04-16T18:32:14.497Z,37.72
2023-04-16T18:35:03.310Z,37.87
2023-04-16T18:37:33.439Z,37.97
2023-04-16T18:40:02.426Z,37.93
2023-04-16T18:42:32.910Z,38.34
2023-04-16T18:45:02.128Z,37.44
2023-04-16T18:47:34.823Z,37.61
2023-04-16T18:50:05.958Z,37.91
2023-04-16T18:52:35.059Z,38.18
2023-04-16T18:55:05.374Z,38.03
2023-04-16T18:57:34.639Z,38.29
2023-04-16T19:00:09.464Z,38.73
2023-04-16T19:02:38.912Z,38.53
2023-04-16T19:05:10.770Z,38.10
2023-04-16T19:07:40.148Z,37.83
2023-04-16T19:10:10.544Z,38.16
2023-04-16T19:12:39.745Z,38.46
2023-04-16T19:15:09.836Z,38.18
2023-04-16T19:17:40.012Z,38.12
2023-04-16T19:20:11.778Z,38.41
2023-04-16T19:22:43.563Z,38.40
2023-04-16T19:25:31.581Z,38.80
2023-04-16T19:28:00.608Z,39.77
2023-04-16T19:30:32.303Z,39.98
2023-04-16T19:33:01.569Z,39.33
2023-04-16T19:35:50.464Z,38.50
2023-04-16T19:38:19.550Z,38.79
2023-04-16T19:40:50.210Z,38.35
2023-04-16T19:43:19.261Z,39.24
2023-04-16T19:45:52.508Z,38.56
2023-04-16T19:48:21.820Z,38.64
2023-04-16T19:50:52.503Z,38.68
2023-04-16T19:53:21.932Z,39.23
2023-04-16T19:55:51.195Z,39.29
2023-04-16T19:58:20.177Z,39.72
2023-04-16T20:00:49.180Z,39.14
2023-04-16T20:03:18.338Z,39.27
2023-04-16T20:05:49.749Z,39.80
2023-04-16T20:08:20.123Z,40.08
2023-04-16T20:10:49.126Z,39.15
2023-04-16T20:13:18.852Z,39.31
2023-04-16T20:15:48.432Z,39.27
2023-04-16T20:18:18.242Z,39.16
2023-04-16T20:20:47.644Z,39.30
2023-04-16T20:23:16.734Z,39.19
2023-04-16T20:25:47.438Z,39.29
2023-04-16T20:28:18.246Z,39.24
2023-04-16T20:30:47.308Z,39.39
2023-04-16T20:33:16.314Z,39.46
2023-04-16T20:35:46.567Z,39.13
2023-04-16T20:38:15.544Z,39.18
2023-04-16T20:40:47.265Z,39.50
2023-04-16T20:43:18.919Z,39.25
2023-04-16T20:45:47.988Z,39.26
2023-04-16T20:48:17.035Z,39.70
2023-04-16T20:50:46.101Z,39.45
2023-04-16T20:53:15.246Z,40.40
2023-04-16T20:55:44.653Z,39.87
2023-04-16T20:58:15.012Z,39.87
2023-04-16T21:00:43.986Z,39.82
2023-04-16T21:03:13.019Z,39.70
2023-04-16T21:05:42.482Z,39.75
2023-04-16T21:08:11.722Z,39.76
2023-04-16T21:10:42.059Z,40.52
2023-04-16T21:13:11.902Z,40.43
2023-04-16T21:15:43.685Z,40.97
2023-04-16T21:18:13.552Z,40.25
2023-04-16T21:20:42.583Z,40.55
2023-04-16T21:23:11.631Z,40.81
2023-04-16T21:25:40.832Z,40.17
2023-04-16T21:28:09.917Z,39.94
2023-04-16T21:30:38.984Z,39.77
2023-04-16T21:33:11.958Z,39.73
2023-04-16T21:35:40.880Z,39.39
2023-04-16T21:38:09.983Z,39.21
2023-04-16T21:40:39.865Z,39.20
2023-04-16T21:43:08.854Z,39.37
2023-04-16T21:45:38.004Z,38.08
2023-04-16T21:48:07.457Z,38.93
2023-04-16T21:50:37.916Z,38.31
2023-04-16T21:53:07.440Z,38.62
2023-04-16T21:55:36.619Z,38.88
2023-04-16T21:58:05.724Z,39.00
2023-04-16T22:00:35.047Z,38.88
2023-04-16T22:03:04.384Z,38.99
2023-04-16T22:05:33.443Z,39.07
2023-04-16T22:08:16.991Z,39.26
2023-04-16T22:10:50.546Z,39.28
2023-04-16T22:13:19.552Z,40.12
2023-04-16T22:15:48.510Z,40.10
2023-04-16T22:18:17.471Z,39.96
2023-04-16T22:20:47.360Z,40.77
2023-04-16T22:23:17.884Z,40.71
2023-04-16T22:25:46.864Z,41.06
2023-04-16T22:28:16.056Z,41.64
2023-04-16T22:30:45.215Z,41.06
2023-04-16T22:33:14.513Z,40.65
2023-04-16T22:35:43.620Z,40.32
2023-04-16T22:38:12.614Z,40.36
2023-04-16T22:40:43.020Z,40.57
2023-04-16T22:43:11.981Z,40.75
2023-04-16T22:45:41.271Z,41.37
2023-04-16T22:48:10.322Z,41.52
2023-04-16T22:50:39.362Z,41.47
2023-04-16T22:53:08.333Z,41.48
2023-04-16T22:55:37.396Z,41.45
2023-04-16T22:58:07.780Z,40.76
2023-04-16T23:00:36.732Z,41.26
2023-04-16T23:03:06.026Z,41.13
2023-04-16T23:05:35.178Z,41.57
2023-04-16T23:08:04.142Z,42.42
2023-04-16T23:10:33.217Z,41.06
2023-04-16T23:13:02.202Z,41.89
2023-04-16T23:15:32.628Z,42.54
2023-04-16T23:18:01.884Z,42.46
2023-04-16T23:20:31.053Z,43.12
2023-04-16T23:22:59.997Z,42.87
2023-04-16T23:25:28.988Z,43.05
2023-04-16T23:27:57.994Z,42.71
2023-04-16T23:30:26.982Z,42.70
2023-04-16T23:32:57.306Z,42.57
2023-04-16T23:35:26.276Z,42.92
2023-04-16T23:37:55.234Z,42.56
2023-04-16T23:40:24.410Z,43.29
2023-04-16T23:42:53.418Z,43.17
2023-04-16T23:45:22.535Z,43.52
2023-04-16T23:47:51.989Z,43.07
2023-04-16T23:50:22.435Z,42.59
2023-04-16T23:52:51.597Z,42.67
2023-04-16T23:55:20.808Z,43.02
2023-04-16T23:57:49.908Z,43.38
